Josephine Anne — WDD9858 — position and weather

sailwx.info

Track history (hours):
 
Tides and Currents Weather Stations Pressure Air Temp Water Temp Dewpoint Dewpoint Depression Visibility Wind Speed Wind Dir Waves Ship Positions

Josephine Anne

Owner: E.N. Bisso & Son, Inc., Metairie, LA. More information available from US FCC via Universal Licensing System and Coast Guard Vessel Documentation Center.

Last reported at 2014-Oct-15 07:28 UTC. Time now 2014-Oct-21 18:30 UTC.
Position N 29°55' W 090°06'.

Length 29 m; draft 4.3 m.

Type: Tug. MMSI: 367317270.

Date/timePositionNaut miles runAvg speedWind from/ knotsBaromVisibWave heightAir tempDewpointWater temp
2014-Oct-15 07:28N 29°55' W 090°06'0 0.1
2014-Oct-15 06:30N 29°55' W 090°06'  
2014-Oct-08 23:30N 29°57' W 090°24'1 1.4
2014-Oct-08 22:33N 29°59' W 090°24'0 0.0
2014-Oct-08 11:33N 29°59' W 090°24'0 0.0
2014-Oct-08 10:33N 29°59' W 090°24'0 0.0
2014-Oct-08 09:33N 29°59' W 090°24'0 0.0
2014-Oct-08 08:32N 29°59' W 090°24'0 0.0
2014-Oct-08 07:33N 29°59' W 090°24'0 0.0
2014-Oct-08 06:32N 29°59' W 090°24'0 0.0
2014-Oct-08 05:29N 29°59' W 090°24'0 0.0
2014-Oct-08 04:33N 29°59' W 090°24'0 0.0
2014-Oct-08 03:33N 29°59' W 090°24'0 0.2
2014-Oct-08 02:33N 29°59' W 090°24'2 0.2
2014-Oct-07 12:27N 29°57' W 090°23'0 0.0
2014-Oct-07 11:33N 29°57' W 090°23'0 0.0
2014-Oct-07 10:33N 29°57' W 090°23'0 0.0
2014-Oct-07 09:30N 29°57' W 090°23'0 0.0
2014-Oct-07 08:33N 29°57' W 090°23'0 0.0
2014-Oct-07 07:33N 29°57' W 090°23'0 0.0
2014-Oct-07 06:33N 29°57' W 090°23'0 0.0
2014-Oct-07 05:33N 29°57' W 090°23'0 0.0
2014-Oct-07 04:33N 29°57' W 090°23'0 0.0
2014-Oct-07 03:33N 29°57' W 090°23'0 0.0
2014-Oct-07 02:15N 29°57' W 090°23'0 0.0
2014-Oct-07 01:33N 29°57' W 090°23'0 0.0
2014-Oct-07 00:33N 29°57' W 090°23'0 0.0
2014-Oct-06 23:33N 29°57' W 090°23'12 1.5
2014-Oct-06 15:33N 30°03' W 090°35'0 0.3
2014-Oct-06 14:32N 30°03' W 090°34'1 0.8
2014-Oct-06 13:33N 30°03' W 090°34'1 1.2
2014-Oct-06 12:33N 30°03' W 090°32'2 2.3
2014-Oct-06 11:33N 30°03' W 090°30'8 8.1
2014-Oct-06 10:31N 29°57' W 090°23'4 4.1
2014-Oct-06 09:33N 29°57' W 090°19'0 0.0
2014-Oct-06 08:32N 29°57' W 090°19'0 0.0
2014-Oct-06 07:32N 29°57' W 090°19'0 0.0
2014-Oct-06 04:21N 29°57' W 090°19'  
Track history (hours):
 
Tides and Currents Weather Stations Pressure Air Temp Water Temp Dewpoint Dewpoint Depression Visibility Wind Speed Wind Dir Waves Ship Positions

Josephine Anne

Owner: E.N. Bisso & Son, Inc., Metairie, LA. More information available from US FCC via Universal Licensing System and Coast Guard Vessel Documentation Center.

Last reported at 2014-Oct-15 07:28 UTC. Time now 2014-Oct-21 18:30 UTC.
Position N 29°55' W 090°06'.

Length 29 m; draft 4.3 m.

Type: Tug. MMSI: 367317270.

Date/timePositionNaut miles runAvg speedWind from/ knotsBaromVisibWave heightAir tempDewpointWater temp
2014-Oct-15 07:28N 29°55' W 090°06'0 0.1
2014-Oct-15 06:30N 29°55' W 090°06'  
2014-Oct-08 23:30N 29°57' W 090°24'1 1.4
2014-Oct-08 22:33N 29°59' W 090°24'0 0.0
2014-Oct-08 11:33N 29°59' W 090°24'0 0.0
2014-Oct-08 10:33N 29°59' W 090°24'0 0.0
2014-Oct-08 09:33N 29°59' W 090°24'0 0.0
2014-Oct-08 08:32N 29°59' W 090°24'0 0.0
2014-Oct-08 07:33N 29°59' W 090°24'0 0.0
2014-Oct-08 06:32N 29°59' W 090°24'0 0.0
2014-Oct-08 05:29N 29°59' W 090°24'0 0.0
2014-Oct-08 04:33N 29°59' W 090°24'0 0.0
2014-Oct-08 03:33N 29°59' W 090°24'0 0.2
2014-Oct-08 02:33N 29°59' W 090°24'2 0.2
2014-Oct-07 12:27N 29°57' W 090°23'0 0.0
2014-Oct-07 11:33N 29°57' W 090°23'0 0.0
2014-Oct-07 10:33N 29°57' W 090°23'0 0.0
2014-Oct-07 09:30N 29°57' W 090°23'0 0.0
2014-Oct-07 08:33N 29°57' W 090°23'0 0.0
2014-Oct-07 07:33N 29°57' W 090°23'0 0.0
2014-Oct-07 06:33N 29°57' W 090°23'0 0.0
2014-Oct-07 05:33N 29°57' W 090°23'0 0.0
2014-Oct-07 04:33N 29°57' W 090°23'0 0.0
2014-Oct-07 03:33N 29°57' W 090°23'0 0.0
2014-Oct-07 02:15N 29°57' W 090°23'0 0.0
2014-Oct-07 01:33N 29°57' W 090°23'0 0.0
2014-Oct-07 00:33N 29°57' W 090°23'0 0.0
2014-Oct-06 23:33N 29°57' W 090°23'12 1.5
2014-Oct-06 15:33N 30°03' W 090°35'0 0.3
2014-Oct-06 14:32N 30°03' W 090°34'1 0.8
2014-Oct-06 13:33N 30°03' W 090°34'1 1.2
2014-Oct-06 12:33N 30°03' W 090°32'2 2.3
2014-Oct-06 11:33N 30°03' W 090°30'8 8.1
2014-Oct-06 10:31N 29°57' W 090°23'4 4.1
2014-Oct-06 09:33N 29°57' W 090°19'0 0.0
2014-Oct-06 08:32N 29°57' W 090°19'0 0.0
2014-Oct-06 07:32N 29°57' W 090°19'0 0.0
2014-Oct-06 04:21N 29°57' W 090°19'  

Dump ship's entire track history